Time;durP1;ratioP1;P1;durP2;ratioP2;P2;SDS_P1;SDS_P2;PMS_P1;PMS_P2;Temp;Humidity;BMP_temperature;BMP_pressure;BME280_temperature;BME280_humidity;BME280_pressure;Samples;Min_cycle;Max_cycle;Signal;HPM_P1;HPM_P2
2022/10/08 00:02:15;;;;;;;10.32;7.13;;;;;;;16.98;100.00;94929.28;5096779;28;20047;-86
2022/10/08 00:04:41;;;;;;;13.05;7.90;;;;;;;16.99;100.00;94928.25;5096664;28;20077;-86
2022/10/08 00:07:06;;;;;;;11.57;6.93;;;;;;;17.04;100.00;94930.00;5096943;28;20023;-86
2022/10/08 00:09:32;;;;;;;13.07;6.50;;;;;;;17.01;100.00;94928.72;5096398;28;20429;-88
2022/10/08 00:11:57;;;;;;;8.50;5.65;;;;;;;17.26;100.00;94934.59;5098030;28;20077;-86
2022/10/08 00:14:23;;;;;;;7.07;5.22;;;;;;;17.17;100.00;94931.06;5079797;28;20069;-86
2022/10/08 00:16:48;;;;;;;10.57;5.22;;;;;;;17.25;100.00;94925.09;5096481;28;20071;-86
2022/10/08 00:19:14;;;;;;;10.05;5.80;;;;;;;16.99;100.00;94927.41;5096327;28;20441;-86
2022/10/08 00:21:42;;;;;;;9.02;5.57;;;;;;;16.73;100.00;94926.03;5079633;28;20036;-86
2022/10/08 00:24:14;;;;;;;7.68;5.47;;;;;;;16.97;100.00;94914.50;5096221;28;20085;-87
2022/10/08 00:26:39;;;;;;;8.73;5.03;;;;;;;16.96;100.00;94918.22;5096958;28;20028;-86
2022/10/08 00:29:05;;;;;;;8.55;5.45;;;;;;;16.79;100.00;94911.66;5079471;28;20127;-86
2022/10/08 00:31:36;;;;;;;8.95;5.28;;;;;;;16.67;100.00;94919.28;5079537;28;20024;-87
2022/10/08 00:34:05;;;;;;;9.80;5.20;;;;;;;16.74;100.00;94914.38;5096450;28;20028;-87
2022/10/08 00:36:33;;;;;;;9.15;5.20;;;;;;;16.60;100.00;94914.38;5096163;28;20035;-86
2022/10/08 00:39:00;;;;;;;9.15;5.10;;;;;;;16.38;100.00;94918.44;5095659;28;20085;-86
2022/10/08 00:41:27;;;;;;;14.55;5.63;;;;;;;16.51;100.00;94921.41;5096081;28;20455;-86
2022/10/08 00:43:55;;;;;;;29.63;5.95;;;;;;;16.38;100.00;94921.06;5096186;28;20417;-86
2022/10/08 00:46:24;;;;;;;9.88;5.50;;;;;;;16.34;100.00;94919.28;5095986;28;20425;-86
2022/10/08 00:48:59;;;;;;;7.28;5.00;;;;;;;16.43;100.00;94914.91;5097031;28;20054;-87
2022/10/08 00:51:24;;;;;;;11.38;6.20;;;;;;;16.41;100.00;94919.72;5096195;28;20024;-86
2022/10/08 00:53:51;;;;;;;13.73;5.22;;;;;;;16.54;100.00;94911.03;5096200;28;20421;-86
2022/10/08 00:56:16;;;;;;;10.18;5.63;;;;;;;16.52;100.00;94912.38;5096065;28;20089;-86
2022/10/08 00:58:42;;;;;;;9.82;5.82;;;;;;;16.56;100.00;94904.66;5079054;28;20432;-87
2022/10/08 01:01:08;;;;;;;13.02;6.35;;;;;;;16.23;100.00;94905.47;5095873;28;20034;-87
2022/10/08 01:03:33;;;;;;;12.15;7.00;;;;;;;16.47;100.00;94901.91;5095922;28;20111;-87
2022/10/08 01:06:15;;;;;;;10.20;6.50;;;;;;;16.35;100.00;94897.06;5096143;28;20028;-86
2022/10/08 01:08:46;;;;;;;11.02;6.10;;;;;;;16.08;100.00;94898.56;5093381;28;20043;-87
2022/10/08 01:11:53;;;;;;;14.05;6.22;;;;;;;16.30;100.00;94892.66;5093210;28;20122;-87
2022/10/08 01:14:55;;;;;;;6.85;4.82;;;;;;;16.38;100.00;94899.91;5079693;28;20024;-86
2022/10/08 01:17:36;;;;;;;8.60;4.15;;;;;;;16.15;100.00;94892.91;5053723;28;20525;-87
2022/10/08 01:20:27;;;;;;;6.65;4.20;;;;;;;16.20;100.00;94898.88;5095696;28;20039;-86
2022/10/08 01:23:28;;;;;;;9.05;4.30;;;;;;;16.13;100.00;94885.28;5095630;28;20115;-86
2022/10/08 01:25:57;;;;;;;9.73;5.38;;;;;;;16.08;100.00;94883.50;5078849;28;20043;-86
2022/10/08 01:28:24;;;;;;;8.98;5.00;;;;;;;16.20;100.00;94898.13;5095376;28;20028;-86
2022/10/08 01:31:19;;;;;;;5.80;3.55;;;;;;;16.29;98.37;94892.94;5095332;28;20059;-87
2022/10/08 01:33:49;;;;;;;7.47;3.95;;;;;;;16.23;100.00;94885.09;5095765;28;20034;-86
2022/10/08 01:36:16;;;;;;;5.97;4.03;;;;;;;15.94;100.00;94883.47;5078905;28;20054;-86
2022/10/08 01:38:45;;;;;;;10.02;4.82;;;;;;;15.90;100.00;94877.16;5095399;28;20406;-86
2022/10/08 01:41:12;;;;;;;6.88;4.70;;;;;;;16.13;100.00;94879.97;5095676;28;20036;-86
2022/10/08 01:43:41;;;;;;;8.27;4.60;;;;;;;15.69;100.00;94877.44;5096742;28;20128;-86
2022/10/08 01:46:11;;;;;;;5.88;4.40;;;;;;;15.71;100.00;94868.44;5095349;28;20028;-87
2022/10/08 01:48:39;;;;;;;6.05;4.20;;;;;;;15.50;100.00;94868.75;5079522;28;20417;-86
2022/10/08 01:51:22;;;;;;;8.05;4.43;;;;;;;15.94;100.00;94861.53;5082572;28;20486;-86
2022/10/08 01:53:49;;;;;;;6.40;4.20;;;;;;;16.03;100.00;94856.34;5099300;28;20310;-86
2022/10/08 01:56:18;;;;;;;8.02;4.65;;;;;;;15.87;100.00;94861.84;5099397;28;20024;-86
2022/10/08 01:58:53;;;;;;;5.75;4.05;;;;;;;16.04;100.00;94847.34;5082352;28;20122;-87
2022/10/08 02:01:51;;;;;;;7.40;4.15;;;;;;;15.99;100.00;94842.94;5100267;28;20032;-86
2022/10/08 02:04:32;;;;;;;6.60;4.07;;;;;;;15.91;100.00;94846.25;5082064;28;20046;-86
2022/10/08 02:07:01;;;;;;;11.32;3.88;;;;;;;15.80;100.00;94841.09;5099174;28;20032;-86
2022/10/08 02:09:27;;;;;;;8.55;4.78;;;;;;;15.45;100.00;94839.78;5099084;28;20070;-86
2022/10/08 02:11:53;;;;;;;6.60;4.15;;;;;;;15.42;100.00;94835.84;5098787;28;20398;-86
2022/10/08 02:14:20;;;;;;;6.63;4.45;;;;;;;15.52;100.00;94830.41;5081739;28;20119;-86
2022/10/08 02:17:02;;;;;;;11.10;4.72;;;;;;;15.73;100.00;94829.31;5099972;28;20028;-87
2022/10/08 02:19:48;;;;;;;10.68;4.75;;;;;;;15.81;100.00;94834.72;5099282;28;20325;-87
2022/10/08 02:22:16;;;;;;;6.63;4.38;;;;;;;15.81;100.00;94837.38;5098997;28;20038;-86
2022/10/08 02:24:56;;;;;;;10.15;4.97;;;;;;;15.61;100.00;94821.84;5098907;28;20042;-86
2022/10/08 02:27:27;;;;;;;7.13;5.30;;;;;;;15.60;100.00;94828.97;5098661;28;20039;-87
2022/10/08 02:30:08;;;;;;;9.40;5.25;;;;;;;15.78;100.00;94827.38;5098905;28;20027;-86
2022/10/08 02:32:37;;;;;;;10.10;5.18;;;;;;;15.66;100.00;94832.31;5098528;28;20448;-86
2022/10/08 02:35:13;;;;;;;9.27;6.18;;;;;;;15.50;100.00;94832.56;5098768;28;20053;-86
2022/10/08 02:38:03;;;;;;;17.75;6.05;;;;;;;15.34;100.00;94834.63;5081703;28;20031;-86
2022/10/08 02:40:29;;;;;;;7.03;4.85;;;;;;;15.36;100.00;94837.00;5098235;28;20066;-86
2022/10/08 02:43:00;;;;;;;9.40;5.78;;;;;;;15.67;100.00;94829.41;5098351;28;20039;-86
2022/10/08 02:45:32;;;;;;;11.27;5.90;;;;;;;15.84;100.00;94814.88;5098208;28;20425;-86
2022/10/08 02:48:05;;;;;;;13.88;6.47;;;;;;;15.90;100.00;94818.25;5098250;28;20428;-86
2022/10/08 02:50:30;;;;;;;;;;;;;;;15.81;100.00;94810.94;5098405;28;20028;-86
2022/10/08 02:52:56;;;;;;;10.75;6.03;;;;;;;15.18;100.00;94812.16;5081419;28;19915;-86
2022/10/08 02:55:21;;;;;;;15.20;8.23;;;;;;;15.40;100.00;94811.59;5098354;28;20040;-86
2022/10/08 02:57:57;;;;;;;16.65;7.70;;;;;;;15.55;100.00;94815.88;5098102;28;20043;-86
2022/10/08 03:00:22;;;;;;;12.15;7.70;;;;;;;15.66;100.00;94814.63;5096762;28;20024;-86
2022/10/08 03:02:57;;;;;;;11.63;7.15;;;;;;;15.74;100.00;94821.13;5098100;28;20024;-86
2022/10/08 03:05:27;;;;;;;9.48;5.22;;;;;;;15.90;100.00;94811.09;5081230;28;20036;-85
2022/10/08 03:07:53;;;;;;;7.43;4.80;;;;;;;16.04;100.00;94813.00;5098113;28;20028;-86
2022/10/08 03:10:20;;;;;;;7.90;5.13;;;;;;;16.07;100.00;94815.06;5097633;28;20031;-86
2022/10/08 03:12:46;;;;;;;8.77;4.97;;;;;;;15.82;100.00;94809.88;5096917;28;20036;-86
2022/10/08 03:15:13;;;;;;;10.30;5.32;;;;;;;15.80;100.00;94805.97;5080867;28;20061;-86
2022/10/08 03:17:43;;;;;;;11.30;5.05;;;;;;;16.01;100.00;94814.38;5097855;28;20126;-86
2022/10/08 03:20:09;;;;;;;10.30;4.55;;;;;;;15.84;100.00;94802.44;5097440;28;20032;-87
2022/10/08 03:22:35;;;;;;;7.00;4.15;;;;;;;15.83;100.00;94808.03;5097662;28;20032;-86
2022/10/08 03:25:01;;;;;;;8.23;4.53;;;;;;;15.84;100.00;94813.00;5097719;28;20047;-86
2022/10/08 03:27:26;;;;;;;9.80;3.80;;;;;;;15.78;100.00;94814.19;5097798;28;20031;-86
2022/10/08 03:29:55;;;;;;;7.30;4.28;;;;;;;15.69;100.00;94813.25;5097490;28;20032;-87
2022/10/08 03:32:22;;;;;;;6.22;4.43;;;;;;;15.63;100.00;94815.19;5097857;28;20394;-86
2022/10/08 03:34:48;;;;;;;5.88;4.07;;;;;;;15.59;100.00;94813.44;5097680;28;20028;-86
2022/10/08 03:37:13;;;;;;;6.72;4.07;;;;;;;15.44;100.00;94817.09;5097256;28;20369;-86
2022/10/08 03:39:39;;;;;;;9.15;4.68;;;;;;;15.43;100.00;94813.66;5097394;28;20060;-87
2022/10/08 03:42:04;;;;;;;9.25;4.30;;;;;;;15.44;100.00;94806.53;5080766;28;20028;-87
2022/10/08 03:44:30;;;;;;;14.15;4.38;;;;;;;15.51;100.00;94812.22;5091130;28;20033;-87
2022/10/08 03:46:55;;;;;;;5.22;3.72;;;;;;;15.33;100.00;94813.81;5088351;28;20036;-86
2022/10/08 03:49:21;;;;;;;7.00;3.53;;;;;;;15.26;100.00;94814.94;5090670;28;20035;-87
2022/10/08 03:51:46;;;;;;;6.50;4.03;;;;;;;15.36;100.00;94806.13;5095870;28;20036;-87
2022/10/08 03:54:11;;;;;;;8.77;4.20;;;;;;;15.36;100.00;94811.38;5065966;28;20032;-87
2022/10/08 03:56:37;;;;;;;5.55;3.55;;;;;;;15.44;92.67;94807.31;5076694;28;20028;-86
2022/10/08 03:59:02;;;;;;;5.70;3.55;;;;;;;15.56;90.26;94809.50;5077912;28;20036;-87
2022/10/08 04:01:28;;;;;;;6.10;3.35;;;;;;;15.66;89.10;94798.00;5077084;28;20058;-86
2022/10/08 04:03:54;;;;;;;6.28;3.28;;;;;;;15.78;88.13;94800.16;5076380;28;20457;-87
2022/10/08 04:06:20;;;;;;;6.47;3.92;;;;;;;15.74;93.44;94800.00;5076360;28;20060;-86
2022/10/08 04:08:45;;;;;;;6.45;3.47;;;;;;;15.18;100.00;94801.59;5059773;28;20028;-87
2022/10/08 04:11:13;;;;;;;8.32;3.65;;;;;;;15.43;96.41;94800.47;5076492;28;20039;-87
2022/10/08 04:13:38;;;;;;;7.90;3.53;;;;;;;15.20;100.00;94802.09;5076499;28;20024;-87
2022/10/08 04:16:09;;;;;;;9.82;4.35;;;;;;;15.45;97.87;94806.25;5077992;28;20037;-87
2022/10/08 04:18:34;;;;;;;6.82;4.50;;;;;;;15.47;99.42;94800.66;5059986;28;20451;-87
2022/10/08 04:21:03;;;;;;;8.93;4.22;;;;;;;15.46;100.00;94799.88;5059869;28;20033;-87
2022/10/08 04:23:31;;;;;;;7.00;4.22;;;;;;;15.38;100.00;94800.53;5076438;28;20058;-87
2022/10/08 04:25:56;;;;;;;9.48;3.78;;;;;;;15.30;100.00;94806.47;5076281;28;20028;-87
2022/10/08 04:28:22;;;;;;;7.38;4.10;;;;;;;15.04;100.00;94804.94;5076328;28;20067;-87
2022/10/08 04:31:02;;;;;;;8.27;4.35;;;;;;;15.04;100.00;94804.19;5076424;28;20425;-87
2022/10/08 04:33:29;;;;;;;8.13;5.00;;;;;;;14.88;100.00;94807.00;5076386;28;20396;-87
2022/10/08 04:35:54;;;;;;;8.88;4.85;;;;;;;14.94;100.00;94803.22;5076212;28;20039;-87
2022/10/08 04:38:20;;;;;;;8.50;5.18;;;;;;;15.24;100.00;94805.75;5077313;28;20032;-87
2022/10/08 04:40:46;;;;;;;10.77;4.85;;;;;;;15.12;100.00;94795.59;5075766;28;20032;-87
2022/10/08 04:43:11;;;;;;;5.85;4.05;;;;;;;15.17;100.00;94813.22;5076085;28;20039;-87
2022/10/08 04:45:42;;;;;;;10.27;4.15;;;;;;;15.17;100.00;94806.09;5076001;28;20040;-87
2022/10/08 04:48:07;;;;;;;9.27;5.05;;;;;;;14.82;100.00;94810.78;5075776;28;20116;-86
2022/10/08 04:50:32;;;;;;;7.32;4.82;;;;;;;14.99;100.00;94810.31;5075840;28;20107;-86
2022/10/08 04:52:58;;;;;;;8.50;5.18;;;;;;;14.78;100.00;94807.13;5075651;28;20031;-86
2022/10/08 04:55:23;;;;;;;8.13;5.30;;;;;;;14.56;100.00;94806.56;5059185;28;20024;-87
2022/10/08 04:57:49;;;;;;;10.65;4.57;;;;;;;15.09;100.00;94799.63;5059452;28;20036;-87
2022/10/08 05:00:14;;;;;;;7.07;4.63;;;;;;;14.94;100.00;94800.59;5059248;28;20033;-87
2022/10/08 05:02:40;;;;;;;7.15;4.78;;;;;;;15.23;100.00;94806.81;5076083;28;20113;-86
2022/10/08 05:05:06;;;;;;;10.70;4.00;;;;;;;15.23;100.00;94797.03;5075478;28;20046;-87
2022/10/08 05:07:31;;;;;;;5.50;3.90;;;;;;;15.43;96.50;94805.75;5076962;28;20036;-86
2022/10/08 05:09:56;;;;;;;5.30;3.80;;;;;;;15.59;94.73;94803.66;5075378;28;20122;-86
2022/10/08 05:12:22;;;;;;;6.20;3.83;;;;;;;15.63;86.81;94801.22;5075457;28;20039;-86
2022/10/08 05:14:47;;;;;;;6.40;3.47;;;;;;;15.48;91.39;94804.88;5076891;28;20111;-87
2022/10/08 05:17:13;;;;;;;5.32;3.20;;;;;;;15.31;94.94;94798.25;5075638;28;20029;-87
2022/10/08 05:19:38;;;;;;;6.40;3.65;;;;;;;15.19;89.89;94793.41;5075580;28;20024;-86
2022/10/08 05:22:03;;;;;;;5.28;3.13;;;;;;;15.07;89.91;94801.75;5075675;28;20037;-87
2022/10/08 05:24:29;;;;;;;5.50;3.15;;;;;;;14.76;94.62;94802.13;5077722;28;20036;-87
2022/10/08 05:26:54;;;;;;;4.47;2.75;;;;;;;14.88;95.42;94806.22;5080058;28;20040;-87
2022/10/08 05:29:20;;;;;;;6.60;3.05;;;;;;;14.65;97.08;94806.72;5079596;28;20081;-87
2022/10/08 05:31:45;;;;;;;7.50;2.65;;;;;;;14.79;91.66;94808.69;5079863;28;20040;-87
2022/10/08 05:34:12;;;;;;;6.03;3.15;;;;;;;15.15;91.11;94813.53;5079685;28;20392;-87
2022/10/08 05:36:37;;;;;;;5.22;3.15;;;;;;;15.18;91.72;94810.31;5062837;28;20136;-86
2022/10/08 05:39:04;;;;;;;5.75;3.45;;;;;;;15.12;95.57;94816.72;5079096;28;20052;-88
2022/10/08 05:41:32;;;;;;;5.80;3.40;;;;;;;14.69;100.00;94820.91;5095686;28;20032;-89
2022/10/08 05:44:00;;;;;;;7.13;3.55;;;;;;;14.67;97.43;94823.03;5082554;28;20051;-89
2022/10/08 05:46:30;;;;;;;3.92;2.72;;;;;;;15.08;89.16;94818.38;5079355;28;20037;-90
2022/10/08 05:48:58;;;;;;;4.57;2.65;;;;;;;15.29;82.25;94818.09;5079651;28;20032;-90
2022/10/08 05:51:24;;;;;;;5.38;2.95;;;;;;;15.45;78.90;94823.94;5078858;28;20081;-89
2022/10/08 05:53:51;;;;;;;6.80;2.80;;;;;;;15.68;78.33;94825.69;5079721;28;20069;-90
2022/10/08 05:56:20;;;;;;;5.22;2.75;;;;;;;15.70;78.57;94820.09;5078932;28;20118;-90
2022/10/08 05:58:46;;;;;;;7.75;2.90;;;;;;;15.83;74.07;94815.97;5078982;28;20127;-90
2022/10/08 06:01:19;;;;;;;7.53;2.65;;;;;;;15.96;72.82;94823.16;5078786;28;20036;-89
2022/10/08 06:03:57;;;;;;;8.05;3.17;;;;;;;15.90;74.62;94819.03;5078982;28;20036;-89
2022/10/08 06:06:23;;;;;;;4.07;2.70;;;;;;;15.99;83.43;94816.50;5080413;28;20127;-89
2022/10/08 06:08:57;;;;;;;4.10;2.60;;;;;;;15.87;82.62;94819.59;5078848;28;20073;-88
2022/10/08 06:11:23;;;;;;;4.85;3.13;;;;;;;15.82;89.68;94809.88;5079140;28;20325;-89
2022/10/08 06:13:53;;;;;;;3.22;2.40;;;;;;;16.05;82.81;94814.56;5079175;28;20059;-88
2022/10/08 06:16:19;;;;;;;5.18;2.53;;;;;;;16.06;83.90;94821.41;5079128;28;20341;-88
2022/10/08 06:18:44;;;;;;;3.50;2.13;;;;;;;16.18;84.41;94824.38;5062010;28;20033;-90
2022/10/08 06:21:12;;;;;;;3.20;2.55;;;;;;;16.30;82.69;94821.28;5062109;28;20033;-91
2022/10/08 06:23:39;;;;;;;6.13;3.30;;;;;;;16.39;82.07;94830.09;5078474;28;20448;-91
2022/10/08 06:26:06;;;;;;;3.75;2.67;;;;;;;16.56;82.84;94822.66;5061784;28;20071;-90
2022/10/08 06:28:33;;;;;;;5.13;2.60;;;;;;;16.58;85.91;94833.72;5061866;28;20054;-92
2022/10/08 06:30:59;;;;;;;7.35;3.10;;;;;;;16.62;86.57;94829.41;5078326;28;20499;-90
2022/10/08 06:33:24;;;;;;;3.78;2.72;;;;;;;16.63;87.10;94837.06;5078536;28;20036;-89
2022/10/08 06:35:50;;;;;;;8.20;3.47;;;;;;;16.27;100.00;94826.34;5078446;28;20103;-90
2022/10/08 06:38:15;;;;;;;8.13;3.40;;;;;;;16.36;100.00;94828.03;5061652;28;20032;-91
2022/10/08 06:40:41;;;;;;;7.03;3.47;;;;;;;16.56;100.00;94830.59;5079295;28;20115;-91
2022/10/08 06:43:17;;;;;;;4.47;2.78;;;;;;;16.62;98.06;94834.69;5078084;28;20082;-90
2022/10/08 06:45:44;;;;;;;7.72;4.38;;;;;;;16.38;100.00;94833.81;5077953;28;20059;-89
2022/10/08 06:48:10;;;;;;;5.95;3.80;;;;;;;16.31;100.00;94836.06;5061449;28;20028;-89
2022/10/08 06:50:36;;;;;;;7.13;3.95;;;;;;;16.54;100.00;94839.59;5061706;28;20396;-90
2022/10/08 06:53:03;;;;;;;6.60;3.80;;;;;;;16.68;100.00;94833.53;5061408;28;20041;-91
2022/10/08 06:55:28;;;;;;;4.85;3.17;;;;;;;16.61;96.50;94833.13;5078965;28;20025;-91
2022/10/08 06:57:56;;;;;;;5.47;2.90;;;;;;;16.54;94.70;94841.47;5060167;28;20091;-91
2022/10/08 07:00:25;;;;;;;6.30;3.83;;;;;;;16.40;100.00;94841.47;5061415;28;20036;-91
2022/10/08 07:02:50;;;;;;;9.02;3.50;;;;;;;16.30;100.00;94839.78;5061224;28;20024;-91
2022/10/08 07:05:31;;;;;;;5.63;3.30;;;;;;;16.66;100.00;94841.75;5061139;28;20387;-90
2022/10/08 07:07:59;;;;;;;7.53;4.30;;;;;;;16.58;100.00;94841.66;5077660;28;20157;-91
2022/10/08 07:10:27;;;;;;;8.05;4.40;;;;;;;16.50;100.00;94837.84;5077707;28;20369;-89
2022/10/08 07:13:04;;;;;;;;;;;;;;;;;;;;;
2022/10/08 07:15:31;;;;;;;9.50;4.35;;;;;;;16.55;100.00;94837.72;5083839;28;20012;-91
2022/10/08 07:18:17;;;;;;;10.73;5.05;;;;;;;16.68;100.00;94841.47;5078542;28;20119;-89
2022/10/08 07:21:00;;;;;;;11.07;4.63;;;;;;;17.10;100.00;94842.25;5066830;28;20365;-90
2022/10/08 07:23:33;;;;;;;;;;;;;;;17.34;100.00;94851.81;5062275;28;20438;-91
2022/10/08 07:26:12;;;;;;;7.70;3.92;;;;;;;17.40;100.00;94852.47;5062021;28;20398;-89
2022/10/08 07:28:41;;;;;;;5.68;3.45;;;;;;;17.29;100.00;94849.28;5060724;28;20024;-89
2022/10/08 07:31:19;;;;;;;7.10;3.90;;;;;;;17.32;100.00;94851.31;5077294;28;20342;-90
2022/10/08 07:33:51;;;;;;;6.72;3.70;;;;;;;17.46;100.00;94847.84;5077066;28;20032;-90
2022/10/08 07:39:24;;;;;;;8.75;4.00;;;;;;;17.69;100.00;94853.97;5065819;28;20619;-91
2022/10/08 07:41:49;;;;;;;5.15;3.90;;;;;;;18.04;100.00;94856.88;5060697;28;20123;-90
2022/10/08 07:44:18;;;;;;;7.07;4.28;;;;;;;18.26;100.00;94859.81;5077058;28;20131;-89
2022/10/08 07:46:52;;;;;;;4.60;3.60;;;;;;;18.48;100.00;94853.69;5060179;28;20123;-92
2022/10/08 07:49:18;;;;;;;6.32;4.35;;;;;;;18.35;100.00;94860.63;5060972;28;20039;-91
2022/10/08 07:51:47;;;;;;;9.30;4.32;;;;;;;18.39;100.00;94872.22;5060219;28;20032;-90
2022/10/08 07:54:15;;;;;;;7.30;4.40;;;;;;;18.39;100.00;94858.16;5060946;28;20035;-91
2022/10/08 07:56:43;;;;;;;8.50;4.43;;;;;;;18.56;100.00;94854.81;5059992;28;20028;-91
2022/10/08 07:59:10;;;;;;;8.23;4.57;;;;;;;18.66;100.00;94865.16;5076457;28;20075;-90
2022/10/08 08:01:36;;;;;;;11.52;4.55;;;;;;;18.73;100.00;94860.19;5060365;28;20051;-91
2022/10/08 08:04:05;;;;;;;7.75;4.65;;;;;;;18.65;100.00;94868.91;5091389;28;20413;-90
2022/10/08 08:06:31;;;;;;;7.18;4.65;;;;;;;18.97;100.00;94868.84;5096785;28;20030;-92
2022/10/08 08:08:59;;;;;;;10.93;5.00;;;;;;;18.65;100.00;94867.03;5080214;28;20080;-91
2022/10/08 08:11:25;;;;;;;8.38;5.00;;;;;;;19.02;100.00;94866.84;5079885;28;20049;-91
2022/10/08 08:13:51;;;;;;;7.72;5.20;;;;;;;18.77;100.00;94861.13;5080222;28;20028;-91
2022/10/08 08:16:29;;;;;;;11.35;5.32;;;;;;;18.75;100.00;94860.66;5096848;28;20306;-91
2022/10/08 08:18:56;;;;;;;7.78;5.07;;;;;;;19.18;100.00;94866.41;5080960;28;20093;-91
2022/10/08 08:21:40;;;;;;;11.23;5.57;;;;;;;19.28;100.00;94862.69;5096666;28;20040;-90
2022/10/08 08:24:10;;;;;;;7.68;4.65;;;;;;;19.34;100.00;94862.22;5079630;28;20081;-90
2022/10/08 08:26:39;;;;;;;10.85;5.30;;;;;;;19.53;100.00;94869.13;5079589;28;20425;-91
2022/10/08 08:29:09;;;;;;;8.30;5.47;;;;;;;19.53;100.00;94871.00;5096433;28;20071;-90
2022/10/08 08:31:36;;;;;;;7.97;5.25;;;;;;;19.63;100.00;94871.47;5079495;28;20035;-90
2022/10/08 08:34:06;;;;;;;7.97;4.88;;;;;;;19.84;94.22;94862.88;5096480;28;20440;-89
2022/10/08 08:36:34;;;;;;;9.30;4.05;;;;;;;19.92;93.13;94866.66;5080353;28;20413;-90
2022/10/08 08:39:00;;;;;;;6.38;4.45;;;;;;;19.90;95.69;94858.94;5096135;28;20027;-88
2022/10/08 08:42:02;;;;;;;7.38;4.28;;;;;;;20.10;97.16;94859.44;5096344;28;20030;-90
2022/10/08 08:44:40;;;;;;;9.43;5.35;;;;;;;20.15;96.25;94855.81;5097412;28;20035;-89
2022/10/08 08:47:18;;;;;;;9.85;4.93;;;;;;;19.81;97.84;94862.72;5079878;28;20028;-89
2022/10/08 08:49:51;;;;;;;14.90;7.53;;;;;;;19.86;91.69;94852.69;5097637;28;20028;-90
2022/10/08 08:52:19;;;;;;;12.38;5.53;;;;;;;20.14;94.25;94851.59;5079614;28;20119;-90
2022/10/08 08:54:45;;;;;;;7.32;5.13;;;;;;;20.20;90.74;94853.00;5079137;28;20016;-91
2022/10/08 08:57:20;;;;;;;9.20;5.25;;;;;;;20.45;88.94;94853.25;5095847;28;20077;-91
2022/10/08 08:59:48;;;;;;;10.88;5.05;;;;;;;20.49;91.07;94849.59;5078561;28;20032;-89
2022/10/08 09:02:39;;;;;;;6.75;4.30;;;;;;;20.62;93.36;94852.38;5079168;28;20024;-89
2022/10/08 09:05:20;;;;;;;;;;;;;;;;;;;;;
2022/10/08 09:08:18;;;;;;;8.77;4.90;;;;;;;20.83;92.56;94846.38;5095854;28;20028;-90
2022/10/08 09:11:01;;;;;;;12.55;4.60;;;;;;;20.46;96.73;94844.16;5095579;28;20028;-89
2022/10/08 09:13:46;;;;;;;;;;;;;;;;;;;;;
2022/10/08 09:16:13;;;;;;;8.40;5.18;;;;;;;21.12;87.54;94844.81;5095770;28;20345;-91
2022/10/08 09:18:40;;;;;;;6.70;4.80;;;;;;;21.30;87.20;94848.13;5095788;28;20119;-90
2022/10/08 09:21:05;;;;;;;13.85;7.35;;;;;;;21.16;96.28;94859.03;5078490;28;20039;-90
2022/10/08 09:23:41;;;;;;;;;;;;;;;;;;;;;
2022/10/08 09:26:09;;;;;;;19.15;7.95;;;;;;;21.47;88.61;94863.22;5095564;28;20329;-91
2022/10/08 09:28:41;;;;;;;12.75;5.70;;;;;;;21.89;92.02;94857.13;5095639;28;20122;-89
2022/10/08 09:31:29;;;;;;;15.23;5.93;;;;;;;21.69;88.91;94850.72;5095512;28;20144;-89
2022/10/08 09:34:06;;;;;;;10.20;6.13;;;;;;;21.61;89.00;94853.09;5095754;28;20066;-88
2022/10/08 09:36:52;;;;;;;11.02;5.28;;;;;;;21.89;87.02;94855.25;5079321;28;20036;-90
2022/10/08 09:39:38;;;;;;;12.20;7.75;;;;;;;21.65;91.59;94853.22;5095213;28;20028;-89
2022/10/08 09:42:06;;;;;;;13.80;8.10;;;;;;;21.90;89.81;94856.03;5079102;28;20039;-90
2022/10/08 09:44:57;;;;;;;9.45;6.05;;;;;;;22.10;92.00;94843.75;5095695;28;20040;-89
2022/10/08 09:47:24;;;;;;;16.70;7.60;;;;;;;22.28;89.95;94852.34;5095648;28;20341;-88
2022/10/08 09:50:17;;;;;;;16.63;8.27;;;;;;;22.31;87.93;94851.72;5079339;28;20048;-91
2022/10/08 09:52:44;;;;;;;18.03;8.53;;;;;;;22.33;93.07;94848.69;5095555;28;20032;-90
2022/10/08 09:55:19;;;;;;;13.85;7.60;;;;;;;22.77;86.93;94842.09;5095509;28;20024;-89
2022/10/08 09:57:47;;;;;;;14.45;8.93;;;;;;;22.66;82.84;94833.75;5095373;28;20040;-89
2022/10/08 10:00:34;;;;;;;14.75;9.00;;;;;;;22.39;81.38;94841.25;5095143;28;20421;-89
2022/10/08 10:03:02;;;;;;;10.75;8.27;;;;;;;22.90;80.35;94832.19;5079248;28;20024;-89
2022/10/08 10:05:33;;;;;;;20.02;8.90;;;;;;;22.23;89.59;94831.22;5078742;28;20429;-88
2022/10/08 10:07:59;;;;;;;13.95;7.95;;;;;;;22.80;91.06;94830.75;5078592;28;20416;-89
2022/10/08 10:10:34;;;;;;;12.52;7.80;;;;;;;22.95;85.65;94830.06;5097568;28;20107;-89
2022/10/08 10:13:07;;;;;;;16.30;8.57;;;;;;;23.10;82.79;94827.84;5099139;28;20035;-90
2022/10/08 10:15:42;;;;;;;14.27;8.02;;;;;;;23.32;79.79;94826.59;5099297;28;20074;-90
2022/10/08 10:18:15;;;;;;;18.98;11.05;;;;;;;22.78;84.39;94819.63;5098956;28;20048;-90
2022/10/08 10:20:45;;;;;;;21.05;11.30;;;;;;;22.87;80.64;94828.31;5100500;28;20036;-89
2022/10/08 10:23:37;;;;;;;15.95;10.30;;;;;;;23.20;76.81;94819.34;5082560;28;20024;-90
2022/10/08 10:26:23;;;;;;;13.15;9.20;;;;;;;23.04;81.56;94821.94;5098837;28;20032;-90
2022/10/08 10:28:54;;;;;;;10.95;5.88;;;;;;;23.39;75.08;94820.69;5098847;28;20031;-90
2022/10/08 10:31:34;;;;;;;12.40;6.70;;;;;;;22.90;76.76;94819.59;5098589;28;20028;-89
2022/10/08 10:34:19;;;;;;;8.85;6.15;;;;;;;23.03;77.76;94815.06;5099752;28;20028;-90
2022/10/08 10:36:49;;;;;;;11.45;6.15;;;;;;;22.83;75.50;94812.16;5098457;28;20131;-89
2022/10/08 10:39:27;;;;;;;10.70;6.55;;;;;;;23.21;73.98;94807.53;5098561;28;20039;-89
2022/10/08 10:42:28;;;;;;;;;;;;;;;;;;;;;
2022/10/08 10:45:03;;;;;;;11.02;6.82;;;;;;;23.25;73.96;94805.78;5086458;28;20356;-91
2022/10/08 10:47:37;;;;;;;13.23;6.05;;;;;;;23.67;77.27;94803.84;5087185;28;20028;-89
2022/10/08 10:50:13;;;;;;;9.10;6.15;;;;;;;23.35;78.47;94801.88;5079317;28;20331;-89
2022/10/08 10:52:56;;;;;;;8.23;5.65;;;;;;;23.61;79.58;94800.69;5062653;28;20060;-88
2022/10/08 10:55:36;;;;;;;9.32;6.07;;;;;;;23.65;73.40;94806.91;5061418;28;20533;-90
2022/10/08 10:58:24;;;;;;;8.20;5.30;;;;;;;23.91;76.34;94797.66;5061731;28;20123;-91
2022/10/08 11:00:55;;;;;;;10.63;5.32;;;;;;;24.10;72.40;94796.22;5077822;28;20134;-89
2022/10/08 11:03:33;;;;;;;8.18;5.93;;;;;;;23.63;75.71;94794.97;5079219;28;20040;-89
2022/10/08 11:06:40;;;;;;;10.15;6.15;;;;;;;23.75;71.84;94794.16;5079081;28;20059;-89
2022/10/08 11:09:09;;;;;;;9.50;5.65;;;;;;;23.53;80.27;94791.69;5078953;28;20508;-88
2022/10/08 11:12:01;;;;;;;11.05;6.50;;;;;;;23.82;75.87;94792.44;5078592;28;20032;-90
2022/10/08 11:15:02;;;;;;;9.88;6.18;;;;;;;23.85;74.17;94775.72;5077723;28;20115;-90
2022/10/08 11:17:48;;;;;;;9.55;6.20;;;;;;;24.25;72.63;94784.00;5092128;28;20104;-89
2022/10/08 11:20:27;;;;;;;19.13;6.68;;;;;;;24.28;70.52;94783.28;5098697;28;20117;-88
2022/10/08 11:23:02;;;;;;;10.55;5.95;;;;;;;24.38;69.56;94784.66;5097190;28;20036;-88
2022/10/08 11:25:41;;;;;;;10.18;6.05;;;;;;;24.21;69.87;94777.75;5097287;28;20038;-88
2022/10/08 11:28:14;;;;;;;8.43;5.85;;;;;;;24.51;72.74;94780.78;5098420;28;20028;-88
2022/10/08 11:30:54;;;;;;;14.07;6.20;;;;;;;24.46;70.60;94774.91;5098069;28;20035;-88
2022/10/08 11:33:19;;;;;;;11.45;6.07;;;;;;;23.91;67.48;94775.44;5098599;28;20032;-89
2022/10/08 11:36:04;;;;;;;10.25;5.80;;;;;;;24.07;65.78;94778.19;5098661;28;20051;-89
2022/10/08 11:38:46;;;;;;;10.18;5.85;;;;;;;23.91;68.72;94773.56;5097452;28;20032;-90
2022/10/08 11:41:31;;;;;;;13.02;5.70;;;;;;;23.89;66.97;94757.06;5080806;28;20038;-89
2022/10/08 11:44:01;;;;;;;10.00;5.50;;;;;;;23.94;66.62;94756.03;5098423;28;20020;-88
2022/10/08 11:46:35;;;;;;;8.50;5.10;;;;;;;24.09;68.85;94763.31;5080400;28;20063;-89
2022/10/08 11:49:21;;;;;;;11.50;5.95;;;;;;;23.79;70.34;94757.56;5080891;28;20047;-89
2022/10/08 11:51:53;;;;;;;14.57;7.85;;;;;;;23.31;67.82;94755.53;5097921;28;20024;-87
2022/10/08 11:54:47;;;;;;;12.52;6.32;;;;;;;23.79;65.86;94752.22;5097586;28;20032;-89
2022/10/08 11:57:19;;;;;;;;;;;;;;;24.24;67.18;94743.03;5097661;28;20131;-89
2022/10/08 12:00:11;;;;;;;10.85;6.72;;;;;;;24.25;69.26;94755.31;5097371;28;20300;-90